Main page
METAR-TAF:

METAR-TAF

Airports :

Oswego County Airport

Fulton, New York, United States

latitude: 43-21-03N, longitude: 076-23-17W, elevation: 145 m

Current weather observation

The report was made 1 hour and 8 minutes ago, at 17:54 UTC
Wind 8 kt from the South
Temperature 31°C
Humidity 49%
Pressure 1018 hPa
Visibility: 16.1 km
Scattered clouds at a height of 7000 ft

METAR: KFZY 171754Z AUTO 19008KT 10SM SCT070 31/19 A3005 RMK AO2 SLP173 T03110189 10317 20222 50003

Time: 15:02 (19:02 UTC)


TAF: missing

Weather observations and forecasts of more than 4000 airports (METAR and TAF reports).

The available stations are represented by yellow and red dots on the map.

Hover mouse over dot to see the name of the station.

Then click to see weather observations and forecasts.

To change the map : click on the green buttons with a black cross to zoom in, on the green button with a dash to zoom out, or on the green arrows for adjacent maps.


METAR-TAF: